Дата Пункты Температура Давл., мм. Влажн., % Ветер Погодные явления
Воздуха Воды Направл. Скорость
10.01.20 11:00 Одесса 2.0 5.0 764 86 Пн 0 11 ГОДИН
10.01.20 08:00 Одесса 1.0 5.0 764 88 Пн 0 08 ГОДИН
10.01.20 05:00 Одесса 1.0 5.0 764 86 Пн 0 05 ГОДИН
10.01.20 02:00 Одесса 1.0 5.0 764 76 Пн 0 02 ГОДИНИ
09.01.20 11:00 Одесса 1.0 5.0 764 72 Пн 0 23 ГОДИНИ
09.01.20 08:00 Одесса 1.0 5.0 765 72 З 1 20 ГОДИН
09.01.20 05:00 Одесса 2.0 5.0 765 65 Пн 0 17 ГОДИН
09.01.20 02:00 Одесса 3.0 5.0 765 55 З 1 14 ГОДИН
09.01.20 11:00 Одесса 3.0 5.0 766 62 З 1 11 ГОДИН
09.01.20 08:00 Одесса -3.0 5.0 767 88 З 1 08 ГОДИН
09.01.20 05:00 Одесса -3.0 5.0 767 90 З 1 05 ГОДИН
09.01.20 02:00 Одесса -2.0 5.0 768 87 З 1 02 ГОДИНИ
08.01.20 11:00 Одесса -2.0 6.0 768 80 З 1 23 ГОДИНИ
08.01.20 08:00 Одесса 1.0 6.0 769 72 Пн-З 2 20 ГОДИН
08.01.20 05:00 Одесса 1.0 5.0 769 70 Пн 3 17 ГОДИН
08.01.20 02:00 Одесса 2.0 5.0 768 65 Пн 3 14 ГОДИН
08.01.20 08:00 Одесса -3.0 6.0 769 79 Пн 4 08 ГОДИН
08.01.20 05:00 Одесса -3.0 6.0 768 82 Пн 3 05 ГОДИН
08.01.20 02:00 Одесса -2.0 6.0 768 80 Пн 5 02 ГОДИНИ
07.01.20 11:00 Одесса -2.0 6.0 768 81 Пн 5 23 ГОДИНИ
Количество строк
1 2 3 4 5 6 7 8 9 10
Page 7 of 579